Aviation Digital Data Service (ADDS)

Output produced by METARs form (0830 UTC 18 November 2018)
found at http://www.aviationweather.gov/metar/data/
 
METAR text: RJAW 180800Z 35007KT 9999 FEW020 25/21 Q1013 RMK 2CU020 A2994
Conditions at: RJAW (IWOJIMA (JMSDF) , JP) observed 0800 UTC 18 November 2018
Temperature: 25.0°C (77°F)
Dewpoint: 21.0°C (70°F) [RH = 79%]
Pressure (altimeter): 29.91 inches Hg (1013.0 mb)
Winds: from the N (350 degrees) at 8 MPH (7 knots; 3.6 m/s)
Visibility: 6 or more miles (10+ km)
Ceiling: at least 12,000 feet AGL
Clouds: few clouds at 2000 feet AGL
Weather: no significant weather observed at this time